sensor_id;sensor_type;location;lat;lon;timestamp;temperature;humidity
17891;DHT22;9071;48.220;14.480;2023-09-07T00:00:35;15.10;99.90
17891;DHT22;9071;48.220;14.480;2023-09-07T00:05:37;15.00;99.90
17891;DHT22;9071;48.220;14.480;2023-09-07T00:10:41;14.90;99.90
17891;DHT22;9071;48.220;14.480;2023-09-07T00:15:43;15.00;99.90
17891;DHT22;9071;48.220;14.480;2023-09-07T00:20:45;15.00;99.90
17891;DHT22;9071;48.220;14.480;2023-09-07T00:25:48;14.70;99.90
17891;DHT22;9071;48.220;14.480;2023-09-07T00:30:50;14.50;99.90
17891;DHT22;9071;48.220;14.480;2023-09-07T00:35:52;14.40;99.90
17891;DHT22;9071;48.220;14.480;2023-09-07T00:40:56;14.20;99.90
17891;DHT22;9071;48.220;14.480;2023-09-07T00:45:58;14.10;99.90
17891;DHT22;9071;48.220;14.480;2023-09-07T00:51:00;14.00;99.90
17891;DHT22;9071;48.220;14.480;2023-09-07T00:56:04;13.90;99.90
17891;DHT22;9071;48.220;14.480;2023-09-07T01:01:07;14.00;99.90
17891;DHT22;9071;48.220;14.480;2023-09-07T01:06:25;14.00;99.90
17891;DHT22;9071;48.220;14.480;2023-09-07T01:11:36;14.00;99.90
17891;DHT22;9071;48.220;14.480;2023-09-07T01:16:38;13.90;99.90
17891;DHT22;9071;48.220;14.480;2023-09-07T01:21:43;13.80;99.90
17891;DHT22;9071;48.220;14.480;2023-09-07T01:26:45;13.60;99.90
17891;DHT22;9071;48.220;14.480;2023-09-07T01:31:50;13.50;99.90
17891;DHT22;9071;48.220;14.480;2023-09-07T01:36:53;13.60;99.90
17891;DHT22;9071;48.220;14.480;2023-09-07T01:41:55;13.50;99.90
17891;DHT22;9071;48.220;14.480;2023-09-07T01:46:57;13.40;99.90
17891;DHT22;9071;48.220;14.480;2023-09-07T01:52:01;13.30;99.90
17891;DHT22;9071;48.220;14.480;2023-09-07T01:57:04;13.20;99.90
17891;DHT22;9071;48.220;14.480;2023-09-07T02:02:06;13.20;99.90
17891;DHT22;9071;48.220;14.480;2023-09-07T02:07:09;13.10;99.90
17891;DHT22;9071;48.220;14.480;2023-09-07T02:12:12;13.20;99.90
17891;DHT22;9071;48.220;14.480;2023-09-07T02:17:14;13.20;99.90
17891;DHT22;9071;48.220;14.480;2023-09-07T02:22:20;13.10;99.90
17891;DHT22;9071;48.220;14.480;2023-09-07T02:27:22;13.10;99.90
17891;DHT22;9071;48.220;14.480;2023-09-07T02:32:24;13.10;99.90
17891;DHT22;9071;48.220;14.480;2023-09-07T02:37:27;13.10;99.90
17891;DHT22;9071;48.220;14.480;2023-09-07T02:42:29;13.10;99.90
17891;DHT22;9071;48.220;14.480;2023-09-07T02:47:31;13.20;99.90
17891;DHT22;9071;48.220;14.480;2023-09-07T02:52:35;13.30;99.90
17891;DHT22;9071;48.220;14.480;2023-09-07T02:57:37;13.50;99.90
17891;DHT22;9071;48.220;14.480;2023-09-07T03:02:39;13.50;99.90
17891;DHT22;9071;48.220;14.480;2023-09-07T03:07:45;13.70;99.90
17891;DHT22;9071;48.220;14.480;2023-09-07T03:12:47;13.90;99.90
17891;DHT22;9071;48.220;14.480;2023-09-07T03:17:49;14.00;99.90
17891;DHT22;9071;48.220;14.480;2023-09-07T03:22:53;14.20;99.90
17891;DHT22;9071;48.220;14.480;2023-09-07T03:27:55;14.20;99.90
17891;DHT22;9071;48.220;14.480;2023-09-07T03:32:57;14.30;99.90
17891;DHT22;9071;48.220;14.480;2023-09-07T03:38:01;14.70;99.90
17891;DHT22;9071;48.220;14.480;2023-09-07T03:43:03;14.80;99.90
17891;DHT22;9071;48.220;14.480;2023-09-07T03:48:06;14.80;99.90
17891;DHT22;9071;48.220;14.480;2023-09-07T03:53:11;14.70;99.90
17891;DHT22;9071;48.220;14.480;2023-09-07T03:58:13;14.60;99.90
17891;DHT22;9071;48.220;14.480;2023-09-07T04:03:15;14.40;99.90
17891;DHT22;9071;48.220;14.480;2023-09-07T04:08:19;14.20;99.90
17891;DHT22;9071;48.220;14.480;2023-09-07T04:13:21;14.20;99.90
17891;DHT22;9071;48.220;14.480;2023-09-07T04:18:23;14.20;99.90
17891;DHT22;9071;48.220;14.480;2023-09-07T04:23:27;14.10;99.90
17891;DHT22;9071;48.220;14.480;2023-09-07T04:28:29;14.00;99.90
17891;DHT22;9071;48.220;14.480;2023-09-07T04:33:31;13.80;99.90
17891;DHT22;9071;48.220;14.480;2023-09-07T04:38:35;13.60;99.90
17891;DHT22;9071;48.220;14.480;2023-09-07T04:43:38;13.40;99.90
17891;DHT22;9071;48.220;14.480;2023-09-07T04:48:41;13.40;99.90
17891;DHT22;9071;48.220;14.480;2023-09-07T04:53:45;13.40;99.90
17891;DHT22;9071;48.220;14.480;2023-09-07T04:58:47;13.50;99.90
17891;DHT22;9071;48.220;14.480;2023-09-07T05:03:49;13.70;99.90
17891;DHT22;9071;48.220;14.480;2023-09-07T05:08:54;14.00;99.90
17891;DHT22;9071;48.220;14.480;2023-09-07T05:13:56;14.30;99.90
17891;DHT22;9071;48.220;14.480;2023-09-07T05:18:58;14.60;99.90
17891;DHT22;9071;48.220;14.480;2023-09-07T05:24:01;15.00;99.90
17891;DHT22;9071;48.220;14.480;2023-09-07T05:29:04;15.20;99.90
17891;DHT22;9071;48.220;14.480;2023-09-07T05:34:06;15.30;99.90
17891;DHT22;9071;48.220;14.480;2023-09-07T05:39:10;15.60;99.90
17891;DHT22;9071;48.220;14.480;2023-09-07T05:44:12;17.70;99.90
17891;DHT22;9071;48.220;14.480;2023-09-07T05:49:14;21.00;99.90
17891;DHT22;9071;48.220;14.480;2023-09-07T05:54:17;23.10;99.90
17891;DHT22;9071;48.220;14.480;2023-09-07T05:59:19;24.50;99.90
17891;DHT22;9071;48.220;14.480;2023-09-07T06:04:21;25.30;99.90
17891;DHT22;9071;48.220;14.480;2023-09-07T06:09:25;25.60;99.90
17891;DHT22;9071;48.220;14.480;2023-09-07T06:14:27;25.90;99.90
17891;DHT22;9071;48.220;14.480;2023-09-07T06:19:29;26.50;99.90
17891;DHT22;9071;48.220;14.480;2023-09-07T06:24:32;25.80;99.90
17891;DHT22;9071;48.220;14.480;2023-09-07T06:29:34;26.20;99.90
17891;DHT22;9071;48.220;14.480;2023-09-07T06:34:36;27.50;99.90
17891;DHT22;9071;48.220;14.480;2023-09-07T06:39:40;26.90;99.90
17891;DHT22;9071;48.220;14.480;2023-09-07T06:44:44;27.70;99.90
17891;DHT22;9071;48.220;14.480;2023-09-07T06:49:46;28.30;99.90
17891;DHT22;9071;48.220;14.480;2023-09-07T06:54:52;29.40;99.90
17891;DHT22;9071;48.220;14.480;2023-09-07T06:59:55;30.20;99.90
17891;DHT22;9071;48.220;14.480;2023-09-07T07:04:57;30.90;99.90
17891;DHT22;9071;48.220;14.480;2023-09-07T07:10:00;31.00;99.90
17891;DHT22;9071;48.220;14.480;2023-09-07T07:15:05;30.50;99.90
17891;DHT22;9071;48.220;14.480;2023-09-07T07:20:08;31.30;99.90
17891;DHT22;9071;48.220;14.480;2023-09-07T07:25:12;32.00;99.90
17891;DHT22;9071;48.220;14.480;2023-09-07T07:30:14;31.40;99.90
17891;DHT22;9071;48.220;14.480;2023-09-07T07:35:16;31.20;99.90
17891;DHT22;9071;48.220;14.480;2023-09-07T07:40:20;30.10;99.90
17891;DHT22;9071;48.220;14.480;2023-09-07T07:45:22;30.00;99.90
17891;DHT22;9071;48.220;14.480;2023-09-07T07:50:24;30.50;99.90
17891;DHT22;9071;48.220;14.480;2023-09-07T07:55:27;30.10;99.90
17891;DHT22;9071;48.220;14.480;2023-09-07T08:00:30;31.20;99.90
17891;DHT22;9071;48.220;14.480;2023-09-07T08:05:33;31.00;99.90
17891;DHT22;9071;48.220;14.480;2023-09-07T08:10:37;29.50;99.90
17891;DHT22;9071;48.220;14.480;2023-09-07T08:15:41;28.80;99.90
17891;DHT22;9071;48.220;14.480;2023-09-07T08:20:43;30.60;99.90
17891;DHT22;9071;48.220;14.480;2023-09-07T08:25:47;31.10;99.90
17891;DHT22;9071;48.220;14.480;2023-09-07T08:30:49;31.40;99.90
17891;DHT22;9071;48.220;14.480;2023-09-07T08:35:54;30.70;99.90
17891;DHT22;9071;48.220;14.480;2023-09-07T08:41:01;28.70;99.90
17891;DHT22;9071;48.220;14.480;2023-09-07T08:46:12;27.10;99.90
17891;DHT22;9071;48.220;14.480;2023-09-07T08:51:15;25.80;99.90
17891;DHT22;9071;48.220;14.480;2023-09-07T08:56:20;25.20;99.90
17891;DHT22;9071;48.220;14.480;2023-09-07T09:01:23;25.00;99.90
17891;DHT22;9071;48.220;14.480;2023-09-07T09:06:25;25.20;99.90
17891;DHT22;9071;48.220;14.480;2023-09-07T09:11:29;25.30;99.90
17891;DHT22;9071;48.220;14.480;2023-09-07T09:16:31;25.30;99.90
17891;DHT22;9071;48.220;14.480;2023-09-07T09:21:33;25.30;99.90
17891;DHT22;9071;48.220;14.480;2023-09-07T09:26:38;25.30;99.90
17891;DHT22;9071;48.220;14.480;2023-09-07T09:31:40;25.40;99.90
17891;DHT22;9071;48.220;14.480;2023-09-07T09:36:43;25.60;99.90
17891;DHT22;9071;48.220;14.480;2023-09-07T09:41:47;25.60;99.90
17891;DHT22;9071;48.220;14.480;2023-09-07T09:46:49;25.70;99.90
17891;DHT22;9071;48.220;14.480;2023-09-07T09:51:53;26.00;99.90
17891;DHT22;9071;48.220;14.480;2023-09-07T09:56:56;26.20;99.90
17891;DHT22;9071;48.220;14.480;2023-09-07T10:01:59;26.40;99.90
17891;DHT22;9071;48.220;14.480;2023-09-07T10:07:02;26.30;99.90
17891;DHT22;9071;48.220;14.480;2023-09-07T10:12:11;26.40;99.90
17891;DHT22;9071;48.220;14.480;2023-09-07T10:17:22;26.60;99.90
17891;DHT22;9071;48.220;14.480;2023-09-07T10:22:24;26.80;99.90
17891;DHT22;9071;48.220;14.480;2023-09-07T10:27:36;26.70;99.90
17891;DHT22;9071;48.220;14.480;2023-09-07T10:32:39;26.80;99.90
17891;DHT22;9071;48.220;14.480;2023-09-07T10:37:43;26.70;99.90
17891;DHT22;9071;48.220;14.480;2023-09-07T10:42:47;26.80;99.90
17891;DHT22;9071;48.220;14.480;2023-09-07T10:47:49;26.90;99.90
17891;DHT22;9071;48.220;14.480;2023-09-07T10:52:53;27.00;99.90
17891;DHT22;9071;48.220;14.480;2023-09-07T10:57:57;27.20;99.90
17891;DHT22;9071;48.220;14.480;2023-09-07T11:02:59;27.40;99.90
17891;DHT22;9071;48.220;14.480;2023-09-07T11:08:01;27.60;99.90
17891;DHT22;9071;48.220;14.480;2023-09-07T11:13:05;27.50;99.90
17891;DHT22;9071;48.220;14.480;2023-09-07T11:18:08;27.60;99.90
17891;DHT22;9071;48.220;14.480;2023-09-07T11:23:11;27.60;99.90
17891;DHT22;9071;48.220;14.480;2023-09-07T11:28:16;27.70;99.90
17891;DHT22;9071;48.220;14.480;2023-09-07T11:33:19;27.80;99.90
17891;DHT22;9071;48.220;14.480;2023-09-07T11:38:21;27.80;99.90
17891;DHT22;9071;48.220;14.480;2023-09-07T11:43:24;27.90;99.90
17891;DHT22;9071;48.220;14.480;2023-09-07T11:48:26;28.00;99.90
17891;DHT22;9071;48.220;14.480;2023-09-07T11:53:29;28.10;99.90
17891;DHT22;9071;48.220;14.480;2023-09-07T11:58:32;28.20;99.90
17891;DHT22;9071;48.220;14.480;2023-09-07T12:03:34;28.10;99.90
17891;DHT22;9071;48.220;14.480;2023-09-07T12:08:37;28.20;99.90
17891;DHT22;9071;48.220;14.480;2023-09-07T12:13:40;28.20;99.90
17891;DHT22;9071;48.220;14.480;2023-09-07T12:18:42;28.50;99.90
17891;DHT22;9071;48.220;14.480;2023-09-07T12:23:44;28.80;99.90
17891;DHT22;9071;48.220;14.480;2023-09-07T12:28:48;28.70;99.90
17891;DHT22;9071;48.220;14.480;2023-09-07T12:33:50;28.60;99.90
17891;DHT22;9071;48.220;14.480;2023-09-07T12:38:52;28.60;99.90
17891;DHT22;9071;48.220;14.480;2023-09-07T12:43:55;28.70;99.90
17891;DHT22;9071;48.220;14.480;2023-09-07T12:48:58;28.80;99.90
17891;DHT22;9071;48.220;14.480;2023-09-07T12:54:00;28.60;99.90
17891;DHT22;9071;48.220;14.480;2023-09-07T12:59:03;28.70;99.90
17891;DHT22;9071;48.220;14.480;2023-09-07T13:04:06;28.90;99.90
17891;DHT22;9071;48.220;14.480;2023-09-07T13:09:08;29.00;99.90
17891;DHT22;9071;48.220;14.480;2023-09-07T13:14:11;29.10;99.90
17891;DHT22;9071;48.220;14.480;2023-09-07T13:19:13;29.00;99.90
17891;DHT22;9071;48.220;14.480;2023-09-07T13:24:15;29.10;99.90
17891;DHT22;9071;48.220;14.480;2023-09-07T13:29:20;29.00;99.90
17891;DHT22;9071;48.220;14.480;2023-09-07T13:34:22;29.10;99.90
17891;DHT22;9071;48.220;14.480;2023-09-07T13:39:24;28.90;99.90
17891;DHT22;9071;48.220;14.480;2023-09-07T13:44:27;28.90;99.90
17891;DHT22;9071;48.220;14.480;2023-09-07T13:49:29;29.00;99.90
17891;DHT22;9071;48.220;14.480;2023-09-07T13:54:31;29.00;99.90
17891;DHT22;9071;48.220;14.480;2023-09-07T13:59:35;29.20;99.90
17891;DHT22;9071;48.220;14.480;2023-09-07T14:04:37;29.00;99.90
17891;DHT22;9071;48.220;14.480;2023-09-07T14:09:39;29.00;99.90
17891;DHT22;9071;48.220;14.480;2023-09-07T14:14:43;28.90;99.90
17891;DHT22;9071;48.220;14.480;2023-09-07T14:19:45;28.90;99.90
17891;DHT22;9071;48.220;14.480;2023-09-07T14:24:47;28.90;99.90
17891;DHT22;9071;48.220;14.480;2023-09-07T14:29:50;28.90;99.90
17891;DHT22;9071;48.220;14.480;2023-09-07T14:34:52;28.60;99.90
17891;DHT22;9071;48.220;14.480;2023-09-07T14:39:56;28.60;99.90
17891;DHT22;9071;48.220;14.480;2023-09-07T14:45:01;28.70;99.90
17891;DHT22;9071;48.220;14.480;2023-09-07T14:50:04;28.70;99.90
17891;DHT22;9071;48.220;14.480;2023-09-07T14:55:07;28.60;99.90
17891;DHT22;9071;48.220;14.480;2023-09-07T15:00:11;28.60;99.90
17891;DHT22;9071;48.220;14.480;2023-09-07T15:05:13;28.20;99.90
17891;DHT22;9071;48.220;14.480;2023-09-07T15:10:15;28.30;99.90
17891;DHT22;9071;48.220;14.480;2023-09-07T15:15:19;28.30;99.90
17891;DHT22;9071;48.220;14.480;2023-09-07T15:20:21;28.30;99.90
17891;DHT22;9071;48.220;14.480;2023-09-07T15:25:23;28.20;99.90
17891;DHT22;9071;48.220;14.480;2023-09-07T15:30:28;28.10;99.90
17891;DHT22;9071;48.220;14.480;2023-09-07T15:35:30;28.00;99.90
17891;DHT22;9071;48.220;14.480;2023-09-07T15:40:32;27.80;99.90
17891;DHT22;9071;48.220;14.480;2023-09-07T15:45:37;27.70;99.90
17891;DHT22;9071;48.220;14.480;2023-09-07T15:50:39;27.60;99.90
17891;DHT22;9071;48.220;14.480;2023-09-07T15:55:41;27.50;99.90
17891;DHT22;9071;48.220;14.480;2023-09-07T16:00:45;27.30;99.90
17891;DHT22;9071;48.220;14.480;2023-09-07T16:05:47;27.20;99.90
17891;DHT22;9071;48.220;14.480;2023-09-07T16:10:49;27.10;99.90
17891;DHT22;9071;48.220;14.480;2023-09-07T16:15:56;26.90;99.90
17891;DHT22;9071;48.220;14.480;2023-09-07T16:20:58;26.80;99.90
17891;DHT22;9071;48.220;14.480;2023-09-07T16:26:02;26.60;99.90
17891;DHT22;9071;48.220;14.480;2023-09-07T16:31:05;26.50;99.90
17891;DHT22;9071;48.220;14.480;2023-09-07T16:36:08;26.40;99.90
17891;DHT22;9071;48.220;14.480;2023-09-07T16:41:10;26.20;99.90
17891;DHT22;9071;48.220;14.480;2023-09-07T16:46:13;26.10;99.90
17891;DHT22;9071;48.220;14.480;2023-09-07T16:51:15;26.00;99.90
17891;DHT22;9071;48.220;14.480;2023-09-07T16:56:17;25.70;99.90
17891;DHT22;9071;48.220;14.480;2023-09-07T17:01:23;25.50;99.90
17891;DHT22;9071;48.220;14.480;2023-09-07T17:06:25;25.30;99.90
17891;DHT22;9071;48.220;14.480;2023-09-07T17:11:27;25.10;99.90
17891;DHT22;9071;48.220;14.480;2023-09-07T17:16:30;24.90;99.90
17891;DHT22;9071;48.220;14.480;2023-09-07T17:21:32;24.70;99.90
17891;DHT22;9071;48.220;14.480;2023-09-07T17:26:34;24.60;99.90
17891;DHT22;9071;48.220;14.480;2023-09-07T17:31:38;24.40;99.90
17891;DHT22;9071;48.220;14.480;2023-09-07T17:36:41;24.10;99.90
17891;DHT22;9071;48.220;14.480;2023-09-07T17:41:43;23.80;99.90
17891;DHT22;9071;48.220;14.480;2023-09-07T17:46:47;23.70;99.90
17891;DHT22;9071;48.220;14.480;2023-09-07T17:51:49;23.50;99.90
17891;DHT22;9071;48.220;14.480;2023-09-07T17:56:51;23.40;99.90
17891;DHT22;9071;48.220;14.480;2023-09-07T18:01:55;23.30;99.90
17891;DHT22;9071;48.220;14.480;2023-09-07T18:06:57;23.10;99.90
17891;DHT22;9071;48.220;14.480;2023-09-07T18:11:59;22.90;99.90
17891;DHT22;9071;48.220;14.480;2023-09-07T18:17:03;22.80;99.90
17891;DHT22;9071;48.220;14.480;2023-09-07T18:22:05;22.80;99.90
17891;DHT22;9071;48.220;14.480;2023-09-07T18:27:08;22.50;99.90
17891;DHT22;9071;48.220;14.480;2023-09-07T18:32:11;22.40;99.90
17891;DHT22;9071;48.220;14.480;2023-09-07T18:37:13;22.40;99.90
17891;DHT22;9071;48.220;14.480;2023-09-07T18:42:15;22.20;99.90
17891;DHT22;9071;48.220;14.480;2023-09-07T18:47:19;21.80;99.90
17891;DHT22;9071;48.220;14.480;2023-09-07T18:52:21;21.70;99.90
17891;DHT22;9071;48.220;14.480;2023-09-07T18:57:23;21.40;99.90
17891;DHT22;9071;48.220;14.480;2023-09-07T19:02:27;21.20;99.90
17891;DHT22;9071;48.220;14.480;2023-09-07T19:07:29;21.10;99.90
17891;DHT22;9071;48.220;14.480;2023-09-07T19:12:31;20.80;99.90
17891;DHT22;9071;48.220;14.480;2023-09-07T19:17:35;20.70;99.90
17891;DHT22;9071;48.220;14.480;2023-09-07T19:22:37;20.60;99.90
17891;DHT22;9071;48.220;14.480;2023-09-07T19:27:39;20.50;99.90
17891;DHT22;9071;48.220;14.480;2023-09-07T19:32:44;20.40;99.90
17891;DHT22;9071;48.220;14.480;2023-09-07T19:37:46;20.20;99.90
17891;DHT22;9071;48.220;14.480;2023-09-07T19:42:48;20.00;99.90
17891;DHT22;9071;48.220;14.480;2023-09-07T19:47:52;20.00;99.90
17891;DHT22;9071;48.220;14.480;2023-09-07T19:52:54;20.00;99.90
17891;DHT22;9071;48.220;14.480;2023-09-07T19:57:56;20.30;99.90
17891;DHT22;9071;48.220;14.480;2023-09-07T20:02:59;20.20;99.90
17891;DHT22;9071;48.220;14.480;2023-09-07T20:08:01;20.20;99.90
17891;DHT22;9071;48.220;14.480;2023-09-07T20:13:04;20.50;99.90
17891;DHT22;9071;48.220;14.480;2023-09-07T20:18:07;20.40;99.90
17891;DHT22;9071;48.220;14.480;2023-09-07T20:23:09;20.40;99.90
17891;DHT22;9071;48.220;14.480;2023-09-07T20:28:11;20.40;99.90
17891;DHT22;9071;48.220;14.480;2023-09-07T20:33:15;20.40;99.90
17891;DHT22;9071;48.220;14.480;2023-09-07T20:38:18;20.30;99.90
17891;DHT22;9071;48.220;14.480;2023-09-07T20:43:20;20.20;99.90
17891;DHT22;9071;48.220;14.480;2023-09-07T20:48:25;20.20;99.90
17891;DHT22;9071;48.220;14.480;2023-09-07T20:53:27;20.00;99.90
17891;DHT22;9071;48.220;14.480;2023-09-07T20:58:30;19.80;99.90
17891;DHT22;9071;48.220;14.480;2023-09-07T21:03:33;19.70;99.90
17891;DHT22;9071;48.220;14.480;2023-09-07T21:08:35;19.60;99.90
17891;DHT22;9071;48.220;14.480;2023-09-07T21:13:37;19.40;99.90
17891;DHT22;9071;48.220;14.480;2023-09-07T21:18:41;19.40;99.90
17891;DHT22;9071;48.220;14.480;2023-09-07T21:23:43;19.20;99.90
17891;DHT22;9071;48.220;14.480;2023-09-07T21:28:45;19.10;99.90
17891;DHT22;9071;48.220;14.480;2023-09-07T21:33:49;18.90;99.90
17891;DHT22;9071;48.220;14.480;2023-09-07T21:38:51;18.80;99.90
17891;DHT22;9071;48.220;14.480;2023-09-07T21:43:53;18.70;99.90
17891;DHT22;9071;48.220;14.480;2023-09-07T21:48:56;18.50;99.90
17891;DHT22;9071;48.220;14.480;2023-09-07T21:53:59;18.30;99.90
17891;DHT22;9071;48.220;14.480;2023-09-07T21:59:02;18.40;99.90
17891;DHT22;9071;48.220;14.480;2023-09-07T22:04:06;18.50;99.90
17891;DHT22;9071;48.220;14.480;2023-09-07T22:09:08;18.70;99.90
17891;DHT22;9071;48.220;14.480;2023-09-07T22:14:10;18.70;99.90
17891;DHT22;9071;48.220;14.480;2023-09-07T22:19:13;18.70;99.90
17891;DHT22;9071;48.220;14.480;2023-09-07T22:24:16;18.70;99.90
17891;DHT22;9071;48.220;14.480;2023-09-07T22:29:18;18.70;99.90
17891;DHT22;9071;48.220;14.480;2023-09-07T22:34:21;18.80;99.90
17891;DHT22;9071;48.220;14.480;2023-09-07T22:39:25;18.70;99.90
17891;DHT22;9071;48.220;14.480;2023-09-07T22:44:27;18.60;99.90
17891;DHT22;9071;48.220;14.480;2023-09-07T22:49:31;18.40;99.90
17891;DHT22;9071;48.220;14.480;2023-09-07T22:54:33;18.40;99.90
17891;DHT22;9071;48.220;14.480;2023-09-07T22:59:35;18.40;99.90
17891;DHT22;9071;48.220;14.480;2023-09-07T23:04:40;18.40;99.90
17891;DHT22;9071;48.220;14.480;2023-09-07T23:09:42;18.30;99.90
17891;DHT22;9071;48.220;14.480;2023-09-07T23:14:46;18.30;99.90
17891;DHT22;9071;48.220;14.480;2023-09-07T23:19:49;18.20;99.90
17891;DHT22;9071;48.220;14.480;2023-09-07T23:24:51;18.00;99.90
17891;DHT22;9071;48.220;14.480;2023-09-07T23:29:53;17.80;99.90
17891;DHT22;9071;48.220;14.480;2023-09-07T23:34:57;17.70;99.90
17891;DHT22;9071;48.220;14.480;2023-09-07T23:40:00;17.50;99.90
17891;DHT22;9071;48.220;14.480;2023-09-07T23:45:04;17.30;99.90
17891;DHT22;9071;48.220;14.480;2023-09-07T23:50:09;17.20;99.90
17891;DHT22;9071;48.220;14.480;2023-09-07T23:55:11;17.10;99.90
